Time;durP1;ratioP1;P1;durP2;ratioP2;P2;SDS_P1;SDS_P2;PMS_P1;PMS_P2;Temp;Humidity;BMP_temperature;BMP_pressure;BME280_temperature;BME280_humidity;BME280_pressure;Samples;Min_cycle;Max_cycle;Signal;HPM_P1;HPM_P2
2022/04/27 00:00:20;;;;;;;5.53;3.03;;;;;;;19.62;60.29;99671.75;5111191;28;20362;-37
2022/04/27 00:02:45;;;;;;;5.55;2.90;;;;;;;19.54;60.76;99668.47;5111776;28;20026;-37
2022/04/27 00:05:12;;;;;;;4.30;2.63;;;;;;;18.97;61.10;99665.78;5111116;28;20044;-37
2022/04/27 00:07:37;;;;;;;5.88;3.00;;;;;;;18.75;61.96;99664.81;5111536;28;20076;-37
2022/04/27 00:10:05;;;;;;;6.25;3.17;;;;;;;18.83;61.74;99662.72;5110802;28;20031;-37
2022/04/27 00:12:30;;;;;;;7.18;2.80;;;;;;;18.73;61.82;99666.97;5110379;28;20020;-37
2022/04/27 00:14:56;;;;;;;5.68;2.83;;;;;;;18.34;62.60;99664.47;5110916;28;20028;-37
2022/04/27 00:17:21;;;;;;;6.45;2.70;;;;;;;17.93;64.34;99661.44;5111386;28;20106;-37
2022/04/27 00:19:46;;;;;;;6.35;2.95;;;;;;;17.98;63.87;99661.47;5110708;28;20114;-36
2022/04/27 00:22:13;;;;;;;5.93;2.75;;;;;;;18.04;64.63;99659.63;5111307;28;20016;-37
2022/04/27 00:24:39;;;;;;;3.85;2.70;;;;;;;18.20;63.69;99662.47;5111149;28;20046;-37
2022/04/27 00:27:05;;;;;;;7.30;3.00;;;;;;;18.11;64.33;99654.06;5111103;28;20468;-38
2022/04/27 00:29:30;;;;;;;5.00;2.78;;;;;;;18.30;63.04;99655.28;5111227;28;20131;-37
2022/04/27 00:31:56;;;;;;;5.82;2.90;;;;;;;17.97;64.66;99659.84;5110672;28;20697;-37
2022/04/27 00:34:22;;;;;;;5.72;2.70;;;;;;;18.07;63.86;99644.88;5110944;28;20148;-37
2022/04/27 00:36:47;;;;;;;5.18;2.55;;;;;;;18.03;63.59;99651.81;5110755;28;20475;-37
2022/04/27 00:39:13;;;;;;;3.13;2.42;;;;;;;18.10;63.82;99649.72;5111372;28;20015;-37
2022/04/27 00:41:38;;;;;;;4.07;2.90;;;;;;;18.23;63.25;99652.00;5110960;28;20015;-37
2022/04/27 00:44:04;;;;;;;4.03;2.80;;;;;;;18.15;63.32;99649.78;5110839;28;20464;-36
2022/04/27 00:46:29;;;;;;;3.78;2.60;;;;;;;18.25;63.21;99644.47;5110845;28;20019;-37
2022/04/27 00:48:54;;;;;;;4.13;2.60;;;;;;;18.21;63.00;99643.38;5111002;28;20020;-37
2022/04/27 00:51:22;;;;;;;5.28;2.97;;;;;;;18.39;62.55;99644.88;5110736;28;20096;-37
2022/04/27 00:53:52;;;;;;;5.03;2.75;;;;;;;18.45;62.39;99654.63;5110424;28;20018;-37
2022/04/27 00:56:21;;;;;;;4.95;2.70;;;;;;;18.25;62.86;99647.16;5110880;28;20026;-37
2022/04/27 00:58:47;;;;;;;4.80;2.40;;;;;;;18.45;61.47;99656.47;5110935;28;20032;-38
2022/04/27 01:01:13;;;;;;;5.18;2.47;;;;;;;18.37;62.56;99647.00;5110891;28;20494;-37
2022/04/27 01:03:40;;;;;;;5.00;2.42;;;;;;;18.33;62.47;99652.09;5110451;28;20039;-37
2022/04/27 01:06:06;;;;;;;3.22;2.42;;;;;;;18.43;62.16;99651.38;5110375;28;20051;-38
2022/04/27 01:08:32;;;;;;;4.75;2.40;;;;;;;18.46;62.23;99647.34;5110858;28;20047;-38
2022/04/27 01:10:59;;;;;;;4.70;2.50;;;;;;;18.39;62.74;99642.19;5111179;28;20379;-37
2022/04/27 01:13:27;;;;;;;4.35;2.75;;;;;;;18.49;62.16;99641.44;5110893;28;20023;-37
2022/04/27 01:15:52;;;;;;;5.18;2.60;;;;;;;18.49;61.70;99644.13;5111442;28;20047;-36
2022/04/27 01:18:18;;;;;;;2.83;2.53;;;;;;;18.32;62.58;99633.50;5111287;28;20367;-37
2022/04/27 01:20:46;;;;;;;2.80;2.50;;;;;;;18.37;62.20;99633.53;5111777;28;20031;-37
2022/04/27 01:23:13;;;;;;;3.47;2.63;;;;;;;18.41;62.18;99636.50;5110600;28;20027;-37
2022/04/27 01:26:01;;;;;;;5.20;2.70;;;;;;;18.44;62.42;99636.00;5110746;28;20023;-36
2022/04/27 01:28:30;;;;;;;3.45;2.50;;;;;;;18.28;62.15;99621.63;5111162;28;20030;-36
2022/04/27 01:30:59;;;;;;;3.05;2.58;;;;;;;18.08;62.97;99624.94;5111072;28;20172;-37
2022/04/27 01:33:25;;;;;;;4.13;2.83;;;;;;;18.02;63.12;99621.38;5111337;28;20030;-37
2022/04/27 01:35:51;;;;;;;3.75;2.60;;;;;;;18.07;62.95;99621.44;5110857;28;20031;-37
2022/04/27 01:38:17;;;;;;;5.10;2.70;;;;;;;17.99;63.85;99621.88;5111214;28;20019;-37
2022/04/27 01:40:43;;;;;;;4.20;2.90;;;;;;;17.98;63.20;99631.84;5111308;28;20040;-37
2022/04/27 01:43:08;;;;;;;4.22;2.70;;;;;;;18.01;63.55;99624.31;5112210;28;20049;-37
2022/04/27 01:45:34;;;;;;;3.65;2.75;;;;;;;18.06;63.13;99629.78;5114255;28;20023;-37
2022/04/27 01:47:59;;;;;;;3.33;2.97;;;;;;;17.96;63.55;99625.91;5114951;28;20092;-36
2022/04/27 01:50:25;;;;;;;3.47;2.80;;;;;;;17.88;63.43;99623.69;5114859;28;20023;-37
2022/04/27 01:55:36;;;;;;;5.88;2.78;;;;;;;17.66;64.34;99614.81;5114680;28;20078;-37
2022/04/27 01:58:01;;;;;;;5.45;3.00;;;;;;;17.72;63.35;99630.75;5114889;28;20026;-37
2022/04/27 02:00:27;;;;;;;3.75;2.80;;;;;;;17.76;63.31;99625.66;5114837;28;20023;-37
2022/04/27 02:02:52;;;;;;;4.68;2.83;;;;;;;17.58;64.11;99619.56;5114738;28;20059;-37
2022/04/27 02:05:17;;;;;;;4.75;2.83;;;;;;;17.41;63.69;99618.84;5114142;28;20086;-37
2022/04/27 02:07:43;;;;;;;4.82;2.80;;;;;;;17.42;64.00;99616.97;5114090;28;20015;-37
2022/04/27 02:10:09;;;;;;;4.50;2.88;;;;;;;17.41;64.57;99609.97;5114530;28;20019;-37
2022/04/27 02:12:34;;;;;;;4.28;2.70;;;;;;;17.39;64.52;99611.03;5114436;28;20122;-36
2022/04/27 02:15:01;;;;;;;3.22;2.60;;;;;;;17.53;63.67;99616.00;5114084;28;20107;-37
2022/04/27 02:17:27;;;;;;;5.05;2.78;;;;;;;17.45;64.28;99614.59;5114205;28;20081;-37
2022/04/27 02:19:52;;;;;;;5.82;2.78;;;;;;;17.40;64.58;99619.91;5114387;28;20027;-37
2022/04/27 02:22:18;;;;;;;3.83;2.60;;;;;;;17.45;64.11;99619.16;5114245;28;20028;-37
2022/04/27 02:24:44;;;;;;;4.20;2.80;;;;;;;17.55;63.44;99620.09;5113977;28;20352;-37
2022/04/27 02:27:09;;;;;;;3.42;2.53;;;;;;;17.52;64.01;99617.91;5114066;28;20057;-37
2022/04/27 02:29:36;;;;;;;3.40;2.75;;;;;;;17.53;63.37;99613.31;5113643;28;20165;-36
2022/04/27 02:32:02;;;;;;;6.53;2.78;;;;;;;17.54;63.81;99621.16;5114109;28;20023;-37
2022/04/27 02:34:27;;;;;;;3.67;2.60;;;;;;;17.52;63.97;99607.13;5114162;28;20023;-40
2022/04/27 02:36:53;;;;;;;3.95;2.67;;;;;;;17.49;64.18;99607.63;5114517;28;20403;-37
2022/04/27 02:39:18;;;;;;;3.97;2.78;;;;;;;17.32;64.28;99601.53;5096180;28;20116;-41
2022/04/27 02:41:44;;;;;;;4.78;3.05;;;;;;;17.43;63.94;99605.16;5114604;28;20435;-39
2022/04/27 02:44:10;;;;;;;5.22;3.10;;;;;;;17.36;64.25;99613.41;5114120;28;20027;-39
2022/04/27 02:46:37;;;;;;;5.15;2.97;;;;;;;17.23;64.15;99595.78;5114335;28;20024;-38
2022/04/27 02:51:49;;;;;;;4.60;3.17;;;;;;;17.38;64.56;99612.09;5113633;28;20083;-38
2022/04/27 02:54:20;;;;;;;4.03;3.10;;;;;;;17.43;64.19;99614.03;5113195;28;20042;-37
2022/04/27 02:56:46;;;;;;;3.33;2.95;;;;;;;17.27;64.22;99615.72;5113650;28;20471;-38
2022/04/27 02:59:12;;;;;;;5.63;3.60;;;;;;;17.12;65.21;99618.22;5113395;28;20020;-38
2022/04/27 03:01:41;;;;;;;5.75;3.35;;;;;;;17.12;64.56;99605.59;5112917;28;20023;-38
2022/04/27 03:04:08;;;;;;;4.93;3.65;;;;;;;17.24;64.95;99612.72;5112724;28;20157;-38
2022/04/27 03:06:33;;;;;;;5.15;3.58;;;;;;;17.28;64.59;99613.84;5072760;28;20036;-37
2022/04/27 03:08:59;;;;;;;6.22;3.67;;;;;;;17.14;65.24;99614.22;5072624;28;20031;-38
2022/04/27 03:11:25;;;;;;;4.55;3.60;;;;;;;17.14;65.06;99621.47;5072063;28;20085;-38
2022/04/27 03:13:50;;;;;;;5.65;3.75;;;;;;;17.17;64.84;99623.66;5072507;28;20060;-37
2022/04/27 03:16:16;;;;;;;4.28;3.40;;;;;;;17.29;64.63;99621.69;5072798;28;20021;-38
2022/04/27 03:18:42;;;;;;;10.98;3.90;;;;;;;17.26;64.52;99619.47;5072630;28;20355;-38
2022/04/27 03:21:09;;;;;;;7.47;3.95;;;;;;;17.18;64.76;99619.91;5071562;28;20081;-38
2022/04/27 03:23:34;;;;;;;4.80;3.65;;;;;;;17.09;64.89;99622.22;5071727;28;20103;-38
2022/04/27 03:26:00;;;;;;;7.15;4.18;;;;;;;17.08;65.37;99619.81;5071867;28;20173;-38
2022/04/27 03:28:26;;;;;;;8.52;4.97;;;;;;;17.05;64.98;99628.34;5071716;28;20035;-38
2022/04/27 03:30:51;;;;;;;9.27;4.95;;;;;;;17.06;65.63;99635.34;5071513;28;20035;-36
2022/04/27 03:33:18;;;;;;;15.38;5.25;;;;;;;17.06;65.36;99617.34;5071407;28;20025;-37
2022/04/27 03:35:44;;;;;;;8.57;4.90;;;;;;;16.96;65.78;99627.97;5071238;28;20040;-37
2022/04/27 03:38:09;;;;;;;8.02;4.50;;;;;;;17.03;64.91;99638.53;5067915;28;20032;-37
2022/04/27 03:40:37;;;;;;;7.45;4.65;;;;;;;17.04;65.54;99643.69;5063000;28;20032;-37
2022/04/27 03:43:03;;;;;;;6.78;4.15;;;;;;;16.91;65.32;99628.72;5070918;28;20103;-38
2022/04/27 03:45:29;;;;;;;7.68;4.13;;;;;;;16.96;65.42;99646.78;5070841;28;20115;-38
2022/04/27 03:47:54;;;;;;;8.15;4.70;;;;;;;17.05;65.18;99647.97;5070959;28;20553;-37
2022/04/27 03:50:20;;;;;;;10.60;4.65;;;;;;;17.23;64.79;99649.56;5071935;28;20082;-37
2022/04/27 03:52:46;;;;;;;10.02;4.57;;;;;;;17.32;64.60;99649.94;5071999;28;20046;-37
2022/04/27 03:55:12;;;;;;;8.32;4.88;;;;;;;17.29;64.62;99650.44;5071691;28;20025;-36
2022/04/27 03:57:38;;;;;;;8.95;5.32;;;;;;;17.41;64.51;99659.19;5071280;28;20136;-38
2022/04/27 04:00:08;;;;;;;8.27;4.38;;;;;;;17.65;66.24;99658.91;5070382;28;20024;-38
2022/04/27 04:02:33;;;;;;;12.45;4.95;;;;;;;18.08;64.60;99655.34;5071393;28;20055;-36
2022/04/27 04:04:59;;;;;;;7.38;4.82;;;;;;;18.57;63.22;99665.22;5085155;28;20067;-36
2022/04/27 04:07:24;;;;;;;7.65;4.40;;;;;;;18.88;62.15;99654.66;5111165;28;20184;-37
2022/04/27 04:09:50;;;;;;;17.05;9.55;;;;;;;19.21;61.08;99664.31;5111298;28;20040;-37
2022/04/27 04:12:16;;;;;;;15.18;8.60;;;;;;;19.54;60.77;99667.66;5111425;28;20019;-37
2022/04/27 04:14:41;;;;;;;8.38;4.95;;;;;;;19.69;59.78;99678.50;5111178;28;20148;-37
2022/04/27 04:17:07;;;;;;;12.85;5.10;;;;;;;20.06;59.08;99676.72;5111441;28;20024;-38
2022/04/27 04:19:33;;;;;;;24.85;16.08;;;;;;;20.29;58.25;99678.91;5111655;28;20035;-38
2022/04/27 04:21:59;;;;;;;13.57;6.95;;;;;;;20.67;56.75;99676.78;5111722;28;20038;-49
2022/04/27 04:24:25;;;;;;;11.18;6.70;;;;;;;20.67;56.29;99679.47;5110837;28;20141;-50
2022/04/27 04:29:34;;;;;;;8.23;3.80;;;;;;;21.11;54.96;99683.47;5090915;28;20104;-49
2022/04/27 04:32:00;;;;;;;13.23;4.30;;;;;;;21.69;53.70;99685.72;5089889;28;20268;-37
2022/04/27 04:34:25;;;;;;;9.57;5.18;;;;;;;21.66;53.38;99684.38;5090753;28;20024;-37
2022/04/27 04:36:51;;;;;;;4.85;3.60;;;;;;;21.66;53.52;99694.41;5090856;28;20061;-37
2022/04/27 04:39:16;;;;;;;8.90;4.03;;;;;;;21.80;52.79;99692.72;5089261;28;20112;-37
2022/04/27 04:41:42;;;;;;;7.53;4.05;;;;;;;21.70;52.79;99692.75;5089234;28;20035;-38
2022/04/27 04:44:07;;;;;;;7.63;4.00;;;;;;;22.18;51.33;99694.91;5108145;28;20028;-36
2022/04/27 04:46:32;;;;;;;7.18;3.80;;;;;;;22.53;50.78;99702.00;5109572;28;20054;-37
2022/04/27 04:48:58;;;;;;;7.75;4.95;;;;;;;22.37;50.72;99695.06;5110072;28;20027;-36
2022/04/27 04:51:23;;;;;;;10.23;4.47;;;;;;;22.46;50.31;99696.09;5110277;28;20034;-38
2022/04/27 04:53:49;;;;;;;11.13;3.97;;;;;;;22.80;48.82;99697.97;5110232;28;20023;-51
2022/04/27 04:56:14;;;;;;;8.25;3.75;;;;;;;22.97;48.36;99701.06;5110347;28;20019;-49
2022/04/27 04:58:40;;;;;;;5.40;3.33;;;;;;;22.99;47.90;99698.06;5109823;28;20023;-52
2022/04/27 05:01:05;;;;;;;5.45;3.13;;;;;;;22.94;47.41;99706.25;5110281;28;20069;-48
2022/04/27 05:03:31;;;;;;;11.40;3.70;;;;;;;23.09;46.96;99708.03;5110273;28;20064;-49
2022/04/27 05:05:56;;;;;;;10.10;3.88;;;;;;;23.54;46.41;99700.47;5110288;28;20051;-49
2022/04/27 05:08:21;;;;;;;20.23;11.40;;;;;;;23.85;45.78;99705.53;5109576;28;20027;-48
2022/04/27 05:10:47;;;;;;;43.88;21.60;;;;;;;23.29;46.74;99702.38;5109690;28;20033;-49
2022/04/27 05:13:12;;;;;;;10.30;4.85;;;;;;;23.17;46.92;99702.78;5109529;28;20419;-50
2022/04/27 05:15:39;;;;;;;10.57;3.67;;;;;;;23.55;45.93;99707.50;5109132;28;20038;-49
2022/04/27 05:18:04;;;;;;;12.15;3.60;;;;;;;23.91;45.16;99701.63;5110655;28;20011;-52
2022/04/27 05:20:30;;;;;;;10.60;3.55;;;;;;;23.99;45.22;99704.50;5113891;28;20572;-49
2022/04/27 05:22:55;;;;;;;8.82;3.80;;;;;;;24.50;44.00;99713.81;5114195;28;20413;-49
2022/04/27 05:25:21;;;;;;;10.85;3.80;;;;;;;24.68;43.81;99709.44;5113522;28;20020;-49
2022/04/27 05:27:46;;;;;;;9.32;3.40;;;;;;;24.24;44.71;99710.69;5113811;28;20080;-51
2022/04/27 05:32:56;;;;;;;6.95;3.13;;;;;;;24.47;43.71;99716.31;5111798;28;20484;-47
2022/04/27 05:35:22;;;;;;;6.85;3.50;;;;;;;25.13;42.43;99714.34;5113421;28;20102;-49
2022/04/27 05:37:47;;;;;;;9.90;3.00;;;;;;;25.33;41.83;99705.81;5113400;28;20046;-38
2022/04/27 05:40:13;;;;;;;5.97;3.10;;;;;;;25.51;41.75;99719.63;5113609;28;20030;-52
2022/04/27 05:42:39;;;;;;;6.50;3.10;;;;;;;25.83;41.03;99707.78;5113813;28;20051;-50
2022/04/27 05:45:07;;;;;;;11.90;3.42;;;;;;;25.12;41.59;99719.00;5112694;28;20456;-49
2022/04/27 05:47:33;;;;;;;11.60;3.08;;;;;;;25.70;41.35;99709.44;5113695;28;20398;-50
2022/04/27 05:49:59;;;;;;;6.57;2.83;;;;;;;26.41;39.86;99703.50;5114085;28;20023;-52
2022/04/27 05:52:25;;;;;;;25.88;17.38;;;;;;;26.76;39.10;99716.59;5113418;28;20134;-49
2022/04/27 05:54:51;;;;;;;16.33;9.50;;;;;;;27.37;37.57;99725.09;5113708;28;20564;-50
2022/04/27 05:57:17;;;;;;;10.30;3.60;;;;;;;26.75;39.00;99718.53;5113732;28;20520;-50
2022/04/27 05:59:43;;;;;;;6.90;2.70;;;;;;;26.41;38.70;99725.31;5113611;28;20620;-47
2022/04/27 06:02:09;;;;;;;5.72;3.28;;;;;;;26.30;39.50;99721.22;5113212;28;20035;-50
2022/04/27 06:04:35;;;;;;;12.85;6.38;;;;;;;26.37;38.90;99729.78;5113267;28;20054;-52
2022/04/27 06:07:00;;;;;;;11.50;4.82;;;;;;;26.40;39.46;99723.69;5113638;28;20036;-51
2022/04/27 06:09:26;;;;;;;5.40;2.53;;;;;;;27.14;37.83;99724.34;5113520;28;20023;-53
2022/04/27 06:11:51;;;;;;;7.68;2.53;;;;;;;27.03;37.37;99719.13;5112924;28;20030;-49
2022/04/27 06:14:17;;;;;;;4.68;2.53;;;;;;;26.88;38.04;99725.84;5112753;28;20067;-50
2022/04/27 06:16:42;;;;;;;57.05;31.20;;;;;;;27.60;39.53;99729.34;5112948;28;20114;-51
2022/04/27 06:19:09;;;;;;;7.22;3.55;;;;;;;28.53;36.02;99726.56;5112860;28;20058;-52
2022/04/27 06:21:35;;;;;;;7.07;3.05;;;;;;;28.50;35.91;99727.19;5113243;28;20027;-47
2022/04/27 06:24:01;;;;;;;12.07;8.63;;;;;;;28.95;35.10;99732.28;5112466;28;20020;-51
2022/04/27 06:26:27;;;;;;;19.00;9.57;;;;;;;29.55;33.64;99738.66;5112449;28;20035;-51
2022/04/27 06:28:53;;;;;;;10.88;3.70;;;;;;;29.48;34.08;99741.94;5112334;28;20031;-37
2022/04/27 06:31:19;;;;;;;6.43;2.80;;;;;;;29.76;33.59;99731.31;5112819;28;20490;-37
2022/04/27 06:33:45;;;;;;;5.28;2.40;;;;;;;30.07;32.76;99741.09;5115534;27;20501;-37
2022/04/27 06:36:11;;;;;;;5.13;2.45;;;;;;;30.63;31.81;99740.00;5133126;27;20050;-37
2022/04/27 06:38:36;;;;;;;4.63;2.47;;;;;;;30.64;31.95;99739.66;5132849;27;20034;-37
2022/04/27 06:41:02;;;;;;;5.63;2.40;;;;;;;30.79;32.00;99739.03;5133095;27;20034;-37
2022/04/27 06:43:28;;;;;;;5.35;2.40;;;;;;;30.78;30.61;99737.41;5119046;27;20391;-37
2022/04/27 06:45:53;;;;;;;4.75;2.80;;;;;;;31.26;30.53;99742.56;5112404;28;20027;-37
2022/04/27 06:48:19;;;;;;;4.28;2.80;;;;;;;31.56;30.43;99743.16;5112847;28;20057;-37
2022/04/27 06:50:44;;;;;;;6.90;2.50;;;;;;;31.68;29.78;99737.66;5112680;28;20037;-37
2022/04/27 06:53:10;;;;;;;5.32;2.47;;;;;;;31.95;29.39;99729.81;5094252;28;20034;-37
2022/04/27 06:55:36;;;;;;;4.13;2.50;;;;;;;32.16;28.59;99743.44;5112359;28;20016;-38
2022/04/27 06:58:02;;;;;;;7.13;2.60;;;;;;;32.11;28.75;99740.91;5112400;28;20023;-51
2022/04/27 07:00:27;;;;;;;6.85;2.30;;;;;;;32.26;28.79;99744.91;5112415;28;20742;-51
2022/04/27 07:02:53;;;;;;;4.72;2.40;;;;;;;32.13;27.87;99739.41;5112196;28;20051;-53
2022/04/27 07:05:20;;;;;;;6.50;2.50;;;;;;;31.71;29.47;99742.47;5111442;28;20031;-52
2022/04/27 07:07:47;;;;;;;5.72;2.10;;;;;;;31.94;28.78;99737.25;5112264;28;20207;-53
2022/04/27 07:10:14;;;;;;;7.13;2.83;;;;;;;31.70;29.37;99743.63;5111675;28;20031;-52
2022/04/27 07:12:40;;;;;;;7.53;2.60;;;;;;;31.81;29.70;99749.44;5111756;28;20096;-51
2022/04/27 07:15:06;;;;;;;5.07;2.67;;;;;;;31.64;29.31;99749.69;5111836;28;20066;-52
2022/04/27 07:17:32;;;;;;;6.97;3.10;;;;;;;31.89;28.32;99739.44;5111993;28;20031;-54
2022/04/27 07:19:58;;;;;;;8.18;2.85;;;;;;;32.31;28.24;99750.13;5109836;28;20389;-51
2022/04/27 07:22:24;;;;;;;5.85;2.95;;;;;;;32.12;28.24;99748.84;5111162;28;20084;-52
2022/04/27 07:24:49;;;;;;;10.60;4.32;;;;;;;32.41;27.64;99746.09;5111353;28;20479;-38
2022/04/27 07:27:16;;;;;;;10.40;3.78;;;;;;;31.90;28.16;99743.81;5110734;28;20030;-38
2022/04/27 07:29:42;;;;;;;10.82;4.72;;;;;;;30.65;29.86;99740.47;5111032;28;20027;-36
2022/04/27 07:32:07;;;;;;;6.18;3.00;;;;;;;29.49;30.76;99743.50;5110980;28;20028;-38
2022/04/27 07:34:33;;;;;;;12.32;3.78;;;;;;;30.97;29.08;99739.66;5110793;28;20016;-37
2022/04/27 07:37:00;;;;;;;8.93;4.72;;;;;;;31.19;29.25;99726.66;5111619;28;20432;-37
2022/04/27 07:39:26;;;;;;;12.98;4.82;;;;;;;32.07;27.81;99731.75;5111550;28;20407;-37
2022/04/27 07:41:51;;;;;;;16.70;5.30;;;;;;;30.28;30.83;99732.84;5110658;28;20031;-36
2022/04/27 07:44:17;;;;;;;21.80;5.25;;;;;;;29.35;31.98;99745.69;5111228;28;20024;-37
2022/04/27 07:46:47;;;;;;;10.52;3.80;;;;;;;30.80;29.92;99737.88;5111601;28;20015;-37
2022/04/27 07:49:13;;;;;;;9.63;4.40;;;;;;;31.66;28.80;99739.13;5111153;28;20024;-37
2022/04/27 07:51:39;;;;;;;8.55;3.45;;;;;;;31.56;28.55;99737.66;5111373;28;20019;-38
2022/04/27 07:54:04;;;;;;;5.82;3.05;;;;;;;32.33;27.02;99726.63;5111007;28;20016;-37
2022/04/27 07:56:30;;;;;;;7.55;3.30;;;;;;;31.95;28.99;99732.56;5111530;28;20142;-37
2022/04/27 07:58:55;;;;;;;10.63;3.72;;;;;;;32.27;28.00;99729.97;5111294;28;20452;-37
2022/04/27 08:01:21;;;;;;;10.65;3.28;;;;;;;32.64;27.38;99724.34;5111385;28;20396;-37
2022/04/27 08:03:46;;;;;;;10.57;3.60;;;;;;;32.59;27.64;99728.13;5110678;28;20035;-37
2022/04/27 08:06:12;;;;;;;10.43;3.90;;;;;;;33.31;26.80;99735.50;5110641;28;20040;-37
2022/04/27 08:08:38;;;;;;;7.05;3.47;;;;;;;33.37;26.81;99730.53;5110727;28;20022;-37
2022/04/27 08:11:04;;;;;;;7.30;3.65;;;;;;;33.18;27.14;99729.28;5110697;28;20055;-38
2022/04/27 08:13:29;;;;;;;6.78;3.50;;;;;;;32.18;28.32;99729.31;5110379;28;20059;-37
2022/04/27 08:15:56;;;;;;;9.20;3.50;;;;;;;31.77;27.92;99730.06;5111150;28;20030;-37
2022/04/27 08:18:21;;;;;;;5.93;3.00;;;;;;;31.77;28.62;99726.53;5098672;28;20028;-38
2022/04/27 08:23:34;;;;;;;6.60;3.70;;;;;;;31.08;28.60;99709.78;5108119;28;20081;-37
2022/04/27 08:26:00;;;;;;;;;;;;;;;31.59;28.20;99722.41;5111507;28;20020;-38
2022/04/27 08:28:27;;;;;;;8.13;3.70;;;;;;;31.38;28.43;99713.13;5110675;28;20148;-36
2022/04/27 08:30:53;;;;;;;15.85;4.43;;;;;;;31.07;29.83;99718.38;5109936;28;20102;-37
2022/04/27 08:33:19;;;;;;;6.05;3.08;;;;;;;30.60;30.05;99714.03;5109489;28;20174;-37
2022/04/27 08:35:46;;;;;;;10.65;3.50;;;;;;;30.57;30.35;99709.22;5109584;28;20027;-38
2022/04/27 08:38:11;;;;;;;9.75;4.10;;;;;;;28.58;33.56;99710.00;5110017;28;20113;-38
2022/04/27 08:40:45;;;;;;;7.60;3.25;;;;;;;28.57;33.55;99716.59;5109673;28;20103;-37
2022/04/27 08:43:11;;;;;;;9.55;3.55;;;;;;;28.68;33.32;99704.16;5108138;28;20471;-37
2022/04/27 08:45:40;;;;;;;7.13;4.07;;;;;;;28.90;33.53;99711.38;5107477;28;20031;-37
2022/04/27 08:48:07;;;;;;;13.68;5.00;;;;;;;29.03;33.73;99712.25;5107955;28;20050;-37
2022/04/27 08:50:33;;;;;;;10.32;3.92;;;;;;;29.11;33.62;99699.66;5108201;28;20076;-37
2022/04/27 08:52:59;;;;;;;10.07;4.10;;;;;;;29.44;33.10;99697.94;5108106;28;20475;-37
2022/04/27 08:55:27;;;;;;;7.38;3.65;;;;;;;26.89;35.52;99708.31;5109428;28;20035;-37
2022/04/27 08:57:53;;;;;;;7.25;3.88;;;;;;;25.92;38.23;99697.00;5109629;28;20099;-38
2022/04/27 09:00:21;;;;;;;11.13;4.00;;;;;;;27.44;36.11;99696.19;5110388;28;20032;-38
2022/04/27 09:02:48;;;;;;;6.15;3.53;;;;;;;27.68;37.15;99686.75;5110206;28;20111;-37
2022/04/27 09:05:22;;;;;;;6.60;3.60;;;;;;;28.59;34.43;99678.75;5110255;28;20111;-38
2022/04/27 09:07:52;;;;;;;7.95;3.35;;;;;;;28.95;33.29;99667.34;5110200;28;20023;-38
2022/04/27 09:10:19;;;;;;;7.20;3.67;;;;;;;29.00;33.24;99688.28;5110443;28;20035;-38
2022/04/27 09:12:53;;;;;;;7.82;3.40;;;;;;;28.19;34.27;99659.78;5110362;28;20467;-38
2022/04/27 09:15:21;;;;;;;11.07;3.97;;;;;;;27.79;35.44;99677.13;5110113;28;20024;-37
2022/04/27 09:20:47;;;;;;;8.40;3.50;;;;;;;28.34;34.58;99683.09;5109229;28;20035;-38
2022/04/27 09:23:21;;;;;;;9.93;3.88;;;;;;;28.83;33.90;99681.72;5108484;28;20504;-37
2022/04/27 09:25:47;;;;;;;7.50;3.47;;;;;;;29.42;33.72;99681.00;5108141;28;20027;-38
2022/04/27 09:28:13;;;;;;;7.97;3.40;;;;;;;29.63;32.79;99683.00;5108548;28;20051;-36
2022/04/27 09:30:38;;;;;;;8.07;3.40;;;;;;;29.93;32.23;99670.06;5108209;28;20117;-37
2022/04/27 09:33:04;;;;;;;5.35;2.67;;;;;;;29.38;32.47;99673.78;5108540;28;20403;-37
2022/04/27 09:35:34;;;;;;;6.05;3.10;;;;;;;29.12;33.02;99671.16;5109135;28;20048;-37
2022/04/27 09:38:17;;;;;;;10.00;3.60;;;;;;;28.19;35.77;99670.72;5110012;28;20028;-37
2022/04/27 09:40:52;;;;;;;8.27;3.40;;;;;;;28.24;35.74;99667.84;5110332;28;20449;-37
2022/04/27 09:43:44;;;;;;;6.75;3.40;;;;;;;28.24;35.90;99667.84;5109890;28;20085;-38
2022/04/27 09:46:22;;;;;;;14.85;3.67;;;;;;;28.03;36.15;99665.75;5109405;28;20111;-38
2022/04/27 09:49:11;;;;;;;6.40;3.90;;;;;;;27.95;36.17;99657.53;5109771;28;20030;-37
2022/04/27 09:51:57;;;;;;;8.57;3.40;;;;;;;28.20;37.99;99656.72;5096657;28;20036;-37
2022/04/27 09:54:25;;;;;;;6.85;3.53;;;;;;;28.95;34.54;99666.56;5089011;28;20036;-37
2022/04/27 09:56:54;;;;;;;5.32;3.22;;;;;;;28.81;33.73;99662.09;5100721;28;20111;-37
2022/04/27 09:59:29;;;;;;;5.30;3.15;;;;;;;29.17;33.58;99654.56;5109734;28;20088;-37
2022/04/27 10:01:58;;;;;;;5.68;3.20;;;;;;;28.08;35.94;99664.78;5109518;28;20023;-37
2022/04/27 10:04:25;;;;;;;7.22;2.92;;;;;;;25.70;38.31;99654.94;5110940;28;20093;-37
2022/04/27 10:06:52;;;;;;;6.30;2.50;;;;;;;26.92;36.70;99644.09;5113413;28;20027;-38
2022/04/27 10:09:17;;;;;;;5.55;2.63;;;;;;;27.63;34.87;99644.00;5113527;28;20443;-38
2022/04/27 10:11:44;;;;;;;6.18;3.00;;;;;;;27.54;35.40;99651.38;5112759;28;20054;-38
2022/04/27 10:14:11;;;;;;;5.78;2.83;;;;;;;27.21;35.79;99650.97;5112636;28;20019;-38
2022/04/27 10:16:37;;;;;;;6.22;2.55;;;;;;;27.50;35.68;99650.41;5113089;28;20094;-37
2022/04/27 10:19:08;;;;;;;5.35;2.80;;;;;;;27.23;36.35;99622.19;5113123;28;20035;-37
2022/04/27 10:21:56;;;;;;;5.90;2.90;;;;;;;26.99;37.38;99638.97;5113251;28;20110;-38
2022/04/27 10:24:34;;;;;;;4.57;2.97;;;;;;;27.09;37.45;99651.53;5111765;28;20439;-38
2022/04/27 10:27:14;;;;;;;5.97;2.92;;;;;;;27.15;36.57;99638.53;5111726;28;20387;-37
2022/04/27 10:29:40;;;;;;;6.68;2.92;;;;;;;27.41;36.19;99627.72;5111773;28;20100;-36
2022/04/27 10:32:06;;;;;;;3.40;2.60;;;;;;;27.63;36.02;99622.13;5112295;28;20097;-37
2022/04/27 10:34:33;;;;;;;4.75;2.58;;;;;;;28.34;34.77;99626.44;5111915;28;20025;-38
2022/04/27 10:37:03;;;;;;;7.25;2.97;;;;;;;28.36;34.72;99626.91;5112407;28;20027;-37
2022/04/27 10:39:32;;;;;;;7.15;2.88;;;;;;;27.67;35.87;99619.56;5112074;28;20023;-38
2022/04/27 10:42:04;;;;;;;6.57;2.50;;;;;;;27.73;36.39;99622.94;5112130;28;20119;-37
2022/04/27 10:44:48;;;;;;;5.50;2.90;;;;;;;28.61;34.35;99616.25;5111538;28;20111;-37
2022/04/27 10:47:18;;;;;;;4.53;2.58;;;;;;;29.15;33.73;99615.72;5112270;28;20107;-36
2022/04/27 10:49:47;;;;;;;6.30;2.22;;;;;;;28.51;34.19;99622.06;5111858;28;20039;-38
2022/04/27 10:52:13;;;;;;;4.75;2.25;;;;;;;28.17;33.66;99613.59;5112285;28;20031;-37
2022/04/27 10:54:40;;;;;;;6.38;2.53;;;;;;;28.68;33.66;99613.84;5112422;28;20493;-38
2022/04/27 10:57:14;;;;;;;7.68;2.00;;;;;;;29.17;32.89;99613.47;5112700;28;20483;-37
2022/04/27 10:59:48;;;;;;;5.50;2.00;;;;;;;28.57;32.91;99615.31;5112581;28;20102;-37
2022/04/27 11:02:37;;;;;;;6.07;2.10;;;;;;;26.97;35.37;99602.22;5112778;28;20031;-37
2022/04/27 11:05:04;;;;;;;5.40;2.10;;;;;;;26.80;35.44;99594.75;5112232;28;20076;-38
2022/04/27 11:07:37;;;;;;;5.38;2.10;;;;;;;27.20;35.29;99598.25;5094401;28;20071;-37
2022/04/27 11:10:09;;;;;;;3.83;1.77;;;;;;;28.14;33.96;99602.50;5112142;28;20119;-37
2022/04/27 11:12:36;;;;;;;4.00;1.90;;;;;;;26.96;35.85;99597.84;5112237;28;20497;-37
2022/04/27 11:15:03;;;;;;;4.10;2.08;;;;;;;27.44;35.41;99597.03;5112155;27;20040;-37
2022/04/27 11:17:29;;;;;;;8.10;2.30;;;;;;;27.84;34.21;99600.41;5112120;28;20023;-37
2022/04/27 11:19:56;;;;;;;4.32;1.90;;;;;;;26.17;35.58;99594.72;5112170;28;20031;-37
2022/04/27 11:22:21;;;;;;;4.15;2.10;;;;;;;25.83;35.77;99595.25;5112554;28;20103;-37
2022/04/27 11:24:50;;;;;;;6.70;2.10;;;;;;;26.84;34.70;99588.34;5112353;28;20451;-37
2022/04/27 11:27:23;;;;;;;10.02;1.88;;;;;;;27.39;33.85;99586.25;5112294;28;20030;-37
2022/04/27 11:29:51;;;;;;;4.95;2.00;;;;;;;27.25;34.11;99589.94;5112296;28;20026;-37
2022/04/27 11:32:16;;;;;;;2.90;1.60;;;;;;;27.34;34.13;99580.94;5111448;28;20066;-39
2022/04/27 11:34:46;;;;;;;3.65;1.90;;;;;;;27.30;34.06;99578.03;5111546;28;20432;-38
2022/04/27 11:37:17;;;;;;;5.40;2.03;;;;;;;27.47;34.11;99558.97;5111720;28;20124;-37
2022/04/27 11:39:44;;;;;;;3.38;1.80;;;;;;;27.42;34.51;99571.97;5111802;28;20019;-37
2022/04/27 11:42:12;;;;;;;7.60;2.33;;;;;;;27.20;34.47;99565.47;5111540;28;20495;-38
2022/04/27 11:44:38;;;;;;;5.10;2.25;;;;;;;27.09;35.52;99551.34;5110925;28;20019;-38
2022/04/27 11:47:04;;;;;;;5.22;2.15;;;;;;;27.95;33.51;99557.19;5111751;28;20024;-38